sensor_id;sensor_type;location;lat;lon;timestamp;pressure;altitude;pressure_sealevel;temperature;humidity
76022;BME280;64718;52.124;6.226;2023-02-23T00:02:04;101280.28;;;7.04;100.00
76022;BME280;64718;52.124;6.226;2023-02-23T00:04:32;101274.25;;;7.05;100.00
76022;BME280;64718;52.124;6.226;2023-02-23T00:06:58;101274.38;;;6.98;100.00
76022;BME280;64718;52.124;6.226;2023-02-23T00:09:25;101274.47;;;6.94;100.00
76022;BME280;64718;52.124;6.226;2023-02-23T00:11:59;101277.09;;;6.91;100.00
76022;BME280;64718;52.124;6.226;2023-02-23T00:14:32;101277.06;;;6.94;100.00
76022;BME280;64718;52.124;6.226;2023-02-23T00:17:00;101261.44;;;6.98;100.00
76022;BME280;64718;52.124;6.226;2023-02-23T00:19:27;101266.66;;;6.97;100.00
76022;BME280;64718;52.124;6.226;2023-02-23T00:21:53;101260.56;;;7.00;100.00
76022;BME280;64718;52.124;6.226;2023-02-23T00:24:23;101268.41;;;6.93;100.00
76022;BME280;64718;52.124;6.226;2023-02-23T00:26:51;101272.72;;;6.93;100.00
76022;BME280;64718;52.124;6.226;2023-02-23T00:29:19;101267.63;;;6.90;100.00
76022;BME280;64718;52.124;6.226;2023-02-23T00:31:47;101270.28;;;6.87;100.00
76022;BME280;64718;52.124;6.226;2023-02-23T00:34:17;101270.34;;;6.84;100.00
76022;BME280;64718;52.124;6.226;2023-02-23T00:36:45;101268.50;;;6.89;100.00
76022;BME280;64718;52.124;6.226;2023-02-23T00:39:14;101265.97;;;6.86;100.00
76022;BME280;64718;52.124;6.226;2023-02-23T00:41:46;101266.88;;;6.85;100.00
76022;BME280;64718;52.124;6.226;2023-02-23T00:44:13;101264.34;;;6.82;100.00
76022;BME280;64718;52.124;6.226;2023-02-23T00:46:40;101261.72;;;6.83;100.00
76022;BME280;64718;52.124;6.226;2023-02-23T00:49:08;101260.03;;;6.82;100.00
76022;BME280;64718;52.124;6.226;2023-02-23T00:51:37;101262.66;;;6.81;100.00
76022;BME280;64718;52.124;6.226;2023-02-23T00:54:05;101261.66;;;6.86;100.00
76022;BME280;64718;52.124;6.226;2023-02-23T00:56:32;101259.13;;;6.85;100.00
76022;BME280;64718;52.124;6.226;2023-02-23T00:58:59;101262.59;;;6.84;100.00
76022;BME280;64718;52.124;6.226;2023-02-23T01:01:26;101265.16;;;6.84;100.00
76022;BME280;64718;52.124;6.226;2023-02-23T01:03:52;101266.06;;;6.83;100.00
76022;BME280;64718;52.124;6.226;2023-02-23T01:06:19;101266.97;;;6.80;100.00
76022;BME280;64718;52.124;6.226;2023-02-23T01:08:49;101275.56;;;6.81;100.00
76022;BME280;64718;52.124;6.226;2023-02-23T01:11:18;101279.75;;;6.86;100.00
76022;BME280;64718;52.124;6.226;2023-02-23T01:13:46;101273.75;;;6.86;100.00
76022;BME280;64718;52.124;6.226;2023-02-23T01:16:16;101270.28;;;6.87;100.00
76022;BME280;64718;52.124;6.226;2023-02-23T01:18:43;101274.56;;;6.88;100.00
76022;BME280;64718;52.124;6.226;2023-02-23T01:21:15;101276.25;;;6.89;100.00
76022;BME280;64718;52.124;6.226;2023-02-23T01:23:41;101271.97;;;6.88;100.00
76022;BME280;64718;52.124;6.226;2023-02-23T01:26:15;101274.53;;;6.89;100.00
76022;BME280;64718;52.124;6.226;2023-02-23T01:28:43;101275.41;;;6.88;100.00
76022;BME280;64718;52.124;6.226;2023-02-23T01:31:10;101276.16;;;6.93;100.00
76022;BME280;64718;52.124;6.226;2023-02-23T01:33:36;101275.34;;;6.91;100.00
76022;BME280;64718;52.124;6.226;2023-02-23T01:36:03;101277.00;;;6.97;100.00
76022;BME280;64718;52.124;6.226;2023-02-23T01:38:30;101275.28;;;6.96;100.00
76022;BME280;64718;52.124;6.226;2023-02-23T01:40:56;101279.59;;;6.95;100.00
76022;BME280;64718;52.124;6.226;2023-02-23T01:43:24;101275.25;;;6.97;100.00
76022;BME280;64718;52.124;6.226;2023-02-23T01:45:52;101276.13;;;6.96;100.00
76022;BME280;64718;52.124;6.226;2023-02-23T01:48:23;101279.56;;;6.97;100.00
76022;BME280;64718;52.124;6.226;2023-02-23T01:50:53;101284.66;;;7.02;100.00
76022;BME280;64718;52.124;6.226;2023-02-23T01:53:22;101297.59;;;7.02;100.00
76022;BME280;64718;52.124;6.226;2023-02-23T01:55:52;101286.38;;;7.01;100.00
76022;BME280;64718;52.124;6.226;2023-02-23T01:58:21;101276.06;;;7.00;100.00
76022;BME280;64718;52.124;6.226;2023-02-23T02:00:52;101278.53;;;7.06;100.00
76022;BME280;64718;52.124;6.226;2023-02-23T02:03:25;101285.53;;;7.01;100.00
76022;BME280;64718;52.124;6.226;2023-02-23T02:05:53;101278.63;;;7.01;100.00
76022;BME280;64718;52.124;6.226;2023-02-23T02:08:21;101280.41;;;6.99;100.00
76022;BME280;64718;52.124;6.226;2023-02-23T02:10:48;101279.56;;;6.97;100.00
76022;BME280;64718;52.124;6.226;2023-02-23T02:13:22;101279.59;;;6.95;100.00
76022;BME280;64718;52.124;6.226;2023-02-23T02:16:19;101273.59;;;6.95;100.00
76022;BME280;64718;52.124;6.226;2023-02-23T02:19:01;101271.84;;;6.95;100.00
76022;BME280;64718;52.124;6.226;2023-02-23T02:30:56;101277.00;;;6.97;100.00
76022;BME280;64718;52.124;6.226;2023-02-23T02:33:50;101287.34;;;6.97;100.00
76022;BME280;64718;52.124;6.226;2023-02-23T02:39:26;101284.81;;;6.94;100.00
76022;BME280;64718;52.124;6.226;2023-02-23T02:42:07;101272.72;;;6.93;100.00
76022;BME280;64718;52.124;6.226;2023-02-23T02:44:41;101272.72;;;6.94;100.00
76022;BME280;64718;52.124;6.226;2023-02-23T02:47:18;101271.03;;;6.92;100.00
76022;BME280;64718;52.124;6.226;2023-02-23T02:49:50;101269.25;;;6.95;100.00
76022;BME280;64718;52.124;6.226;2023-02-23T02:52:20;101263.16;;;7.00;100.00
76022;BME280;64718;52.124;6.226;2023-02-23T02:54:52;101259.59;;;7.04;100.00
76022;BME280;64718;52.124;6.226;2023-02-23T02:57:25;101257.84;;;7.06;100.00
76022;BME280;64718;52.124;6.226;2023-02-23T02:59:53;101261.31;;;7.05;100.00
76022;BME280;64718;52.124;6.226;2023-02-23T03:02:39;101262.16;;;7.05;100.00
76022;BME280;64718;52.124;6.226;2023-02-23T03:05:26;101254.41;;;7.05;100.00
76022;BME280;64718;52.124;6.226;2023-02-23T03:08:19;101258.75;;;7.03;100.00
76022;BME280;64718;52.124;6.226;2023-02-23T03:11:07;101255.28;;;7.04;100.00
76022;BME280;64718;52.124;6.226;2023-02-23T03:14:01;101256.25;;;7.00;100.00
76022;BME280;64718;52.124;6.226;2023-02-23T03:16:55;101269.22;;;6.97;100.00
76022;BME280;64718;52.124;6.226;2023-02-23T03:19:47;101265.03;;;6.90;100.00
76022;BME280;64718;52.124;6.226;2023-02-23T03:22:39;101266.81;;;6.88;100.00
76022;BME280;64718;52.124;6.226;2023-02-23T03:25:30;101270.28;;;6.87;100.00
76022;BME280;64718;52.124;6.226;2023-02-23T03:28:18;101273.75;;;6.86;100.00
76022;BME280;64718;52.124;6.226;2023-02-23T03:31:09;101275.38;;;6.90;100.00
76022;BME280;64718;52.124;6.226;2023-02-23T03:34:04;101272.78;;;6.90;100.00
76022;BME280;64718;52.124;6.226;2023-02-23T03:36:57;101275.50;;;6.84;100.00
76022;BME280;64718;52.124;6.226;2023-02-23T03:39:47;101278.19;;;6.79;100.00
76022;BME280;64718;52.124;6.226;2023-02-23T03:42:36;101281.69;;;6.77;100.00
76022;BME280;64718;52.124;6.226;2023-02-23T03:45:23;101277.41;;;6.76;100.00
76022;BME280;64718;52.124;6.226;2023-02-23T03:48:10;101285.91;;;6.81;100.00
76022;BME280;64718;52.124;6.226;2023-02-23T03:50:58;101287.63;;;6.82;100.00
76022;BME280;64718;52.124;6.226;2023-02-23T03:53:48;101291.81;;;6.87;100.00
76022;BME280;64718;52.124;6.226;2023-02-23T03:56:38;101286.72;;;6.83;100.00
76022;BME280;64718;52.124;6.226;2023-02-23T03:59:29;101298.75;;;6.85;100.00
76022;BME280;64718;52.124;6.226;2023-02-23T04:02:17;101287.59;;;6.83;100.00
76022;BME280;64718;52.124;6.226;2023-02-23T04:05:07;101293.66;;;6.81;100.00
76022;BME280;64718;52.124;6.226;2023-02-23T04:07:54;101298.94;;;6.76;100.00
76022;BME280;64718;52.124;6.226;2023-02-23T04:10:43;101294.63;;;6.75;100.00
76022;BME280;64718;52.124;6.226;2023-02-23T04:13:30;101296.44;;;6.72;100.00
76022;BME280;64718;52.124;6.226;2023-02-23T04:16:00;101299.91;;;6.71;100.00
76022;BME280;64718;52.124;6.226;2023-02-23T04:18:30;101305.91;;;6.71;100.00
76022;BME280;64718;52.124;6.226;2023-02-23T04:20:58;101299.94;;;6.69;100.00
76022;BME280;64718;52.124;6.226;2023-02-23T04:23:25;101303.38;;;6.70;100.00
76022;BME280;64718;52.124;6.226;2023-02-23T04:25:53;101308.56;;;6.68;100.00
76022;BME280;64718;52.124;6.226;2023-02-23T04:28:21;101309.38;;;6.70;100.00
76022;BME280;64718;52.124;6.226;2023-02-23T04:30:48;101311.09;;;6.71;100.00
76022;BME280;64718;52.124;6.226;2023-02-23T04:33:16;101311.97;;;6.70;100.00
76022;BME280;64718;52.124;6.226;2023-02-23T04:35:44;101307.69;;;6.69;100.00
76022;BME280;64718;52.124;6.226;2023-02-23T04:38:11;101307.75;;;6.66;100.00
76022;BME280;64718;52.124;6.226;2023-02-23T04:40:37;101314.59;;;6.69;100.00
76022;BME280;64718;52.124;6.226;2023-02-23T04:43:04;101316.31;;;6.68;100.00
76022;BME280;64718;52.124;6.226;2023-02-23T04:45:30;101318.06;;;6.68;100.00
76022;BME280;64718;52.124;6.226;2023-02-23T04:47:57;101317.25;;;6.64;100.00
76022;BME280;64718;52.124;6.226;2023-02-23T04:50:23;101323.28;;;6.64;100.00
76022;BME280;64718;52.124;6.226;2023-02-23T04:52:51;101322.50;;;6.61;100.00
76022;BME280;64718;52.124;6.226;2023-02-23T04:55:20;101315.63;;;6.60;100.00
76022;BME280;64718;52.124;6.226;2023-02-23T04:57:47;101316.50;;;6.59;100.00
76022;BME280;64718;52.124;6.226;2023-02-23T05:00:14;101316.53;;;6.57;100.00
76022;BME280;64718;52.124;6.226;2023-02-23T05:02:42;101311.31;;;6.59;100.00
76022;BME280;64718;52.124;6.226;2023-02-23T05:05:09;101318.22;;;6.58;100.00
76022;BME280;64718;52.124;6.226;2023-02-23T05:07:36;101319.97;;;6.58;100.00
76022;BME280;64718;52.124;6.226;2023-02-23T05:10:06;101325.09;;;6.59;100.00
76022;BME280;64718;52.124;6.226;2023-02-23T05:12:32;101324.22;;;6.60;100.00
76022;BME280;64718;52.124;6.226;2023-02-23T05:14:59;101319.09;;;6.59;100.00
76022;BME280;64718;52.124;6.226;2023-02-23T05:17:26;101325.94;;;6.60;100.00
76022;BME280;64718;52.124;6.226;2023-02-23T05:19:52;101324.25;;;6.59;100.00
76022;BME280;64718;52.124;6.226;2023-02-23T05:22:20;101327.72;;;6.58;100.00
76022;BME280;64718;52.124;6.226;2023-02-23T05:24:47;101336.34;;;6.57;100.00
76022;BME280;64718;52.124;6.226;2023-02-23T05:27:15;101334.63;;;6.57;100.00
76022;BME280;64718;52.124;6.226;2023-02-23T05:29:42;101339.81;;;6.56;100.00
76022;BME280;64718;52.124;6.226;2023-02-23T05:32:08;101341.56;;;6.54;100.00
76022;BME280;64718;52.124;6.226;2023-02-23T05:34:35;101343.31;;;6.52;100.00
76022;BME280;64718;52.124;6.226;2023-02-23T05:37:03;101338.97;;;6.55;100.00
76022;BME280;64718;52.124;6.226;2023-02-23T05:39:30;101345.03;;;6.53;100.00
76022;BME280;64718;52.124;6.226;2023-02-23T05:41:56;101345.03;;;6.53;100.00
76022;BME280;64718;52.124;6.226;2023-02-23T05:44:24;101351.94;;;6.52;100.00
76022;BME280;64718;52.124;6.226;2023-02-23T05:46:51;101343.31;;;6.52;100.00
76022;BME280;64718;52.124;6.226;2023-02-23T05:49:17;101348.50;;;6.52;100.00
76022;BME280;64718;52.124;6.226;2023-02-23T05:51:44;101339.91;;;6.50;100.00
76022;BME280;64718;52.124;6.226;2023-02-23T05:54:10;101344.22;;;6.51;100.00
76022;BME280;64718;52.124;6.226;2023-02-23T05:56:37;101335.63;;;6.49;100.00
76022;BME280;64718;52.124;6.226;2023-02-23T05:59:04;101344.25;;;6.48;100.00
76022;BME280;64718;52.124;6.226;2023-02-23T06:01:32;101349.47;;;6.46;100.00
76022;BME280;64718;52.124;6.226;2023-02-23T06:03:58;101354.66;;;6.45;100.00
76022;BME280;64718;52.124;6.226;2023-02-23T06:06:25;101351.19;;;6.46;100.00
76022;BME280;64718;52.124;6.226;2023-02-23T06:08:52;101359.81;;;6.45;100.00
76022;BME280;64718;52.124;6.226;2023-02-23T06:11:19;101347.75;;;6.45;100.00
76022;BME280;64718;52.124;6.226;2023-02-23T06:13:45;101350.34;;;6.45;100.00
76022;BME280;64718;52.124;6.226;2023-02-23T06:16:12;101358.94;;;6.46;100.00
76022;BME280;64718;52.124;6.226;2023-02-23T06:18:40;101360.69;;;6.44;100.00
76022;BME280;64718;52.124;6.226;2023-02-23T06:21:07;101360.72;;;6.42;100.00
76022;BME280;64718;52.124;6.226;2023-02-23T06:23:33;101362.47;;;6.42;100.00
76022;BME280;64718;52.124;6.226;2023-02-23T06:26:00;101358.16;;;6.42;100.00
76022;BME280;64718;52.124;6.226;2023-02-23T06:28:27;101363.28;;;6.44;100.00
76022;BME280;64718;52.124;6.226;2023-02-23T06:30:55;101371.91;;;6.43;100.00
76022;BME280;64718;52.124;6.226;2023-02-23T06:33:22;101367.59;;;6.43;100.00
76022;BME280;64718;52.124;6.226;2023-02-23T06:35:51;101382.25;;;6.43;100.00
76022;BME280;64718;52.124;6.226;2023-02-23T06:38:19;101379.66;;;6.43;100.00
76022;BME280;64718;52.124;6.226;2023-02-23T06:40:45;101377.06;;;6.44;100.00
76022;BME280;64718;52.124;6.226;2023-02-23T06:43:12;101383.97;;;6.44;100.00
76022;BME280;64718;52.124;6.226;2023-02-23T06:45:39;101390.00;;;6.43;100.00
76022;BME280;64718;52.124;6.226;2023-02-23T06:48:05;101388.25;;;6.45;100.00
76022;BME280;64718;52.124;6.226;2023-02-23T06:50:32;101383.06;;;6.46;100.00
76022;BME280;64718;52.124;6.226;2023-02-23T06:53:00;101393.34;;;6.48;100.00
76022;BME280;64718;52.124;6.226;2023-02-23T06:55:26;101389.91;;;6.47;100.00
76022;BME280;64718;52.124;6.226;2023-02-23T06:57:53;101392.44;;;6.50;100.00
76022;BME280;64718;52.124;6.226;2023-02-23T07:00:20;101401.94;;;6.50;100.00
76022;BME280;64718;52.124;6.226;2023-02-23T07:02:47;101398.44;;;6.52;100.00
76022;BME280;64718;52.124;6.226;2023-02-23T07:05:13;101404.50;;;6.51;100.00
76022;BME280;64718;52.124;6.226;2023-02-23T07:07:40;101411.38;;;6.52;100.00
76022;BME280;64718;52.124;6.226;2023-02-23T07:10:10;101408.81;;;6.51;100.00
76022;BME280;64718;52.124;6.226;2023-02-23T07:12:37;101410.56;;;6.49;100.00
76022;BME280;64718;52.124;6.226;2023-02-23T07:15:04;101413.97;;;6.51;100.00
76022;BME280;64718;52.124;6.226;2023-02-23T07:17:31;101408.78;;;6.52;100.00
76022;BME280;64718;52.124;6.226;2023-02-23T07:19:57;101416.47;;;6.55;100.00
76022;BME280;64718;52.124;6.226;2023-02-23T07:22:24;101421.63;;;6.57;100.00
76022;BME280;64718;52.124;6.226;2023-02-23T07:24:53;101417.31;;;6.57;100.00
76022;BME280;64718;52.124;6.226;2023-02-23T07:27:21;101425.91;;;6.58;100.00
76022;BME280;64718;52.124;6.226;2023-02-23T07:29:48;101420.69;;;6.61;100.00
76022;BME280;64718;52.124;6.226;2023-02-23T07:32:14;101426.69;;;6.63;100.00
76022;BME280;64718;52.124;6.226;2023-02-23T07:34:41;101435.28;;;6.63;100.00
76022;BME280;64718;52.124;6.226;2023-02-23T07:37:07;101431.88;;;6.63;100.00
76022;BME280;64718;52.124;6.226;2023-02-23T07:39:34;101439.47;;;6.71;100.00
76022;BME280;64718;52.124;6.226;2023-02-23T07:42:00;101443.81;;;6.69;100.00
76022;BME280;64718;52.124;6.226;2023-02-23T07:44:28;101433.50;;;6.69;100.00
76022;BME280;64718;52.124;6.226;2023-02-23T07:46:55;101440.28;;;6.74;100.00
76022;BME280;64718;52.124;6.226;2023-02-23T07:49:21;101440.34;;;6.71;100.00
76022;BME280;64718;52.124;6.226;2023-02-23T07:51:49;101445.44;;;6.76;100.00
76022;BME280;64718;52.124;6.226;2023-02-23T07:54:16;101454.03;;;6.76;100.00
76022;BME280;64718;52.124;6.226;2023-02-23T07:56:42;101451.44;;;6.76;100.00
76022;BME280;64718;52.124;6.226;2023-02-23T07:59:09;101451.38;;;6.81;100.00
76022;BME280;64718;52.124;6.226;2023-02-23T08:01:37;101456.50;;;6.82;100.00
76022;BME280;64718;52.124;6.226;2023-02-23T08:04:03;101463.38;;;6.85;100.00
76022;BME280;64718;52.124;6.226;2023-02-23T08:06:30;101468.53;;;6.85;100.00
76022;BME280;64718;52.124;6.226;2023-02-23T08:08:57;101460.72;;;6.88;100.00
76022;BME280;64718;52.124;6.226;2023-02-23T08:11:24;101465.88;;;6.89;100.00
76022;BME280;64718;52.124;6.226;2023-02-23T08:13:52;101458.09;;;6.91;100.00
76022;BME280;64718;52.124;6.226;2023-02-23T08:16:20;101475.28;;;6.95;100.00
76022;BME280;64718;52.124;6.226;2023-02-23T08:18:48;101472.66;;;6.96;100.00
76022;BME280;64718;52.124;6.226;2023-02-23T08:21:15;101477.00;;;6.96;100.00
76022;BME280;64718;52.124;6.226;2023-02-23T08:23:41;101476.03;;;7.02;100.00
76022;BME280;64718;52.124;6.226;2023-02-23T08:26:09;101474.25;;;7.04;100.00
76022;BME280;64718;52.124;6.226;2023-02-23T08:28:35;101470.72;;;7.09;100.00
76022;BME280;64718;52.124;6.226;2023-02-23T08:31:02;101469.72;;;7.16;100.00
76022;BME280;64718;52.124;6.226;2023-02-23T08:33:28;101471.47;;;7.16;100.00
76022;BME280;64718;52.124;6.226;2023-02-23T08:35:59;101474.94;;;7.13;100.00
76022;BME280;64718;52.124;6.226;2023-02-23T08:38:27;101477.44;;;7.18;100.00
76022;BME280;64718;52.124;6.226;2023-02-23T08:40:53;101474.03;;;7.16;100.00
76022;BME280;64718;52.124;6.226;2023-02-23T08:43:20;101473.94;;;7.20;100.00
76022;BME280;64718;52.124;6.226;2023-02-23T08:45:46;101480.84;;;7.21;100.00
76022;BME280;64718;52.124;6.226;2023-02-23T08:48:13;101477.34;;;7.24;100.00
76022;BME280;64718;52.124;6.226;2023-02-23T08:50:39;101485.91;;;7.27;100.00
76022;BME280;64718;52.124;6.226;2023-02-23T08:53:07;101483.31;;;7.27;100.00
76022;BME280;64718;52.124;6.226;2023-02-23T08:55:36;101489.38;;;7.25;100.00
76022;BME280;64718;52.124;6.226;2023-02-23T08:58:03;101495.44;;;7.24;100.00
76022;BME280;64718;52.124;6.226;2023-02-23T09:00:33;101499.81;;;7.20;100.00
76022;BME280;64718;52.124;6.226;2023-02-23T09:03:00;101504.16;;;7.20;100.00
76022;BME280;64718;52.124;6.226;2023-02-23T09:05:26;101503.25;;;7.21;100.00
76022;BME280;64718;52.124;6.226;2023-02-23T09:07:53;101501.59;;;7.18;100.00
76022;BME280;64718;52.124;6.226;2023-02-23T09:10:21;101505.81;;;7.22;100.00
76022;BME280;64718;52.124;6.226;2023-02-23T09:12:52;101504.19;;;7.17;100.00
76022;BME280;64718;52.124;6.226;2023-02-23T09:15:18;101513.59;;;7.22;100.00
76022;BME280;64718;52.124;6.226;2023-02-23T09:17:45;101508.44;;;7.21;100.00
76022;BME280;64718;52.124;6.226;2023-02-23T09:20:13;101514.34;;;7.27;100.00
76022;BME280;64718;52.124;6.226;2023-02-23T09:22:40;101516.81;;;7.35;100.00
76022;BME280;64718;52.124;6.226;2023-02-23T09:25:13;101517.63;;;7.37;100.00
76022;BME280;64718;52.124;6.226;2023-02-23T09:27:44;101521.84;;;7.43;100.00
76022;BME280;64718;52.124;6.226;2023-02-23T09:30:11;101520.91;;;7.47;100.00
76022;BME280;64718;52.124;6.226;2023-02-23T09:32:39;101519.69;;;7.66;100.00
76022;BME280;64718;52.124;6.226;2023-02-23T09:35:06;101518.81;;;7.67;100.00
76022;BME280;64718;52.124;6.226;2023-02-23T09:37:33;101519.59;;;7.71;100.00
76022;BME280;64718;52.124;6.226;2023-02-23T09:40:00;101525.59;;;7.73;100.00
76022;BME280;64718;52.124;6.226;2023-02-23T09:42:36;101530.72;;;7.76;100.00
76022;BME280;64718;52.124;6.226;2023-02-23T09:45:14;101528.13;;;7.76;100.00
76022;BME280;64718;52.124;6.226;2023-02-23T09:47:56;101528.16;;;7.74;100.00
76022;BME280;64718;52.124;6.226;2023-02-23T09:50:27;101528.09;;;7.77;100.00
76022;BME280;64718;52.124;6.226;2023-02-23T09:52:57;101529.75;;;7.80;100.00
76022;BME280;64718;52.124;6.226;2023-02-23T09:55:26;101531.50;;;7.79;100.00
76022;BME280;64718;52.124;6.226;2023-02-23T09:57:53;101533.03;;;7.88;100.00
76022;BME280;64718;52.124;6.226;2023-02-23T10:00:25;101534.53;;;8.00;100.00
76022;BME280;64718;52.124;6.226;2023-02-23T10:03:12;101533.59;;;8.04;100.00
76022;BME280;64718;52.124;6.226;2023-02-23T10:05:45;101536.94;;;8.10;100.00
76022;BME280;64718;52.124;6.226;2023-02-23T10:08:27;101539.38;;;8.16;100.00
76022;BME280;64718;52.124;6.226;2023-02-23T10:11:01;101547.16;;;8.16;100.00
76022;BME280;64718;52.124;6.226;2023-02-23T10:13:39;101540.41;;;8.09;100.00
76022;BME280;64718;52.124;6.226;2023-02-23T10:16:17;101533.47;;;8.10;100.00
76022;BME280;64718;52.124;6.226;2023-02-23T10:18:52;101538.47;;;8.19;100.00
76022;BME280;64718;52.124;6.226;2023-02-23T10:21:28;101530.38;;;8.34;100.00
76022;BME280;64718;52.124;6.226;2023-02-23T10:23:59;101536.53;;;8.29;100.00
76022;BME280;64718;52.124;6.226;2023-02-23T10:26:32;101539.88;;;8.35;100.00
76022;BME280;64718;52.124;6.226;2023-02-23T10:29:00;101540.50;;;8.45;100.00
76022;BME280;64718;52.124;6.226;2023-02-23T10:31:35;101547.25;;;8.52;100.00
76022;BME280;64718;52.124;6.226;2023-02-23T10:34:07;101544.50;;;8.60;100.00
76022;BME280;64718;52.124;6.226;2023-02-23T10:36:38;101546.63;;;8.42;100.00
76022;BME280;64718;52.124;6.226;2023-02-23T10:39:08;101553.06;;;8.23;100.00
76022;BME280;64718;52.124;6.226;2023-02-23T10:41:38;101551.25;;;8.27;100.00
76022;BME280;64718;52.124;6.226;2023-02-23T10:44:09;101552.06;;;8.29;100.00
76022;BME280;64718;52.124;6.226;2023-02-23T10:46:41;101542.25;;;8.44;100.00
76022;BME280;64718;52.124;6.226;2023-02-23T10:49:13;101549.72;;;8.58;100.00
76022;BME280;64718;52.124;6.226;2023-02-23T10:51:43;101543.63;;;8.59;100.00
76022;BME280;64718;52.124;6.226;2023-02-23T10:54:38;101546.66;;;8.41;100.00
76022;BME280;64718;52.124;6.226;2023-02-23T10:57:10;101547.72;;;8.31;100.00
76022;BME280;64718;52.124;6.226;2023-02-23T10:59:40;101559.69;;;8.38;100.00
76022;BME280;64718;52.124;6.226;2023-02-23T11:02:23;101559.69;;;8.38;100.00
76022;BME280;64718;52.124;6.226;2023-02-23T11:04:52;101568.41;;;8.34;100.00
76022;BME280;64718;52.124;6.226;2023-02-23T11:07:22;101563.50;;;8.20;100.00
76022;BME280;64718;52.124;6.226;2023-02-23T11:09:49;101570.47;;;8.16;100.00
76022;BME280;64718;52.124;6.226;2023-02-23T11:12:19;101566.19;;;8.15;100.00
76022;BME280;64718;52.124;6.226;2023-02-23T11:14:47;101573.34;;;8.01;100.00
76022;BME280;64718;52.124;6.226;2023-02-23T11:17:28;101571.66;;;8.00;100.00
76022;BME280;64718;52.124;6.226;2023-02-23T11:20:03;101566.38;;;8.05;100.00
76022;BME280;64718;52.124;6.226;2023-02-23T11:22:33;101568.91;;;8.08;100.00
76022;BME280;64718;52.124;6.226;2023-02-23T11:25:02;101569.72;;;8.11;100.00
76022;BME280;64718;52.124;6.226;2023-02-23T11:27:37;101572.44;;;8.04;100.00
76022;BME280;64718;52.124;6.226;2023-02-23T11:30:05;101555.19;;;8.03;100.00
76022;BME280;64718;52.124;6.226;2023-02-23T11:32:33;101551.69;;;8.05;100.00
76022;BME280;64718;52.124;6.226;2023-02-23T11:35:20;101550.03;;;8.01;100.00
76022;BME280;64718;52.124;6.226;2023-02-23T11:37:52;101561.28;;;8.00;100.00
76022;BME280;64718;52.124;6.226;2023-02-23T11:40:22;101557.69;;;8.07;100.00
76022;BME280;64718;52.124;6.226;2023-02-23T11:42:51;101562.63;;;8.19;100.00
76022;BME280;64718;52.124;6.226;2023-02-23T11:45:19;101552.94;;;8.29;100.00
76022;BME280;64718;52.124;6.226;2023-02-23T11:47:49;101548.63;;;8.28;100.00
76022;BME280;64718;52.124;6.226;2023-02-23T11:50:22;101554.56;;;8.35;100.00
76022;BME280;64718;52.124;6.226;2023-02-23T11:52:55;101552.25;;;8.21;100.00
76022;BME280;64718;52.124;6.226;2023-02-23T11:55:22;101559.31;;;8.13;100.00
76022;BME280;64718;52.124;6.226;2023-02-23T11:57:50;101561.13;;;8.08;100.00
76022;BME280;64718;52.124;6.226;2023-02-23T12:00:22;101554.25;;;8.07;100.00
76022;BME280;64718;52.124;6.226;2023-02-23T12:02:54;101559.38;;;8.08;100.00
76022;BME280;64718;52.124;6.226;2023-02-23T12:05:23;101561.22;;;8.03;100.00
76022;BME280;64718;52.124;6.226;2023-02-23T12:07:55;101550.84;;;8.05;100.00
76022;BME280;64718;52.124;6.226;2023-02-23T12:10:25;101561.38;;;7.96;100.00
76022;BME280;64718;52.124;6.226;2023-02-23T12:12:59;101556.06;;;8.02;100.00
76022;BME280;64718;52.124;6.226;2023-02-23T12:15:35;101550.03;;;8.01;100.00
76022;BME280;64718;52.124;6.226;2023-02-23T12:18:14;101552.97;;;7.84;100.00
76022;BME280;64718;52.124;6.226;2023-02-23T12:20:46;101554.75;;;7.82;100.00
76022;BME280;64718;52.124;6.226;2023-02-23T12:23:17;101552.88;;;7.89;100.00
76022;BME280;64718;52.124;6.226;2023-02-23T12:25:47;101555.50;;;7.87;100.00
76022;BME280;64718;52.124;6.226;2023-02-23T12:28:21;101554.63;;;7.88;100.00
76022;BME280;64718;52.124;6.226;2023-02-23T12:30:52;101563.28;;;7.87;100.00
76022;BME280;64718;52.124;6.226;2023-02-23T12:33:26;101564.19;;;7.85;100.00
76022;BME280;64718;52.124;6.226;2023-02-23T12:36:01;101565.19;;;7.78;100.00
76022;BME280;64718;52.124;6.226;2023-02-23T12:38:36;101573.09;;;7.70;100.00
76022;BME280;64718;52.124;6.226;2023-02-23T12:41:10;101574.91;;;7.67;100.00
76022;BME280;64718;52.124;6.226;2023-02-23T12:43:43;101571.47;;;7.66;100.00
76022;BME280;64718;52.124;6.226;2023-02-23T12:46:13;101574.09;;;7.65;100.00
76022;BME280;64718;52.124;6.226;2023-02-23T12:48:51;101573.09;;;7.70;100.00
76022;BME280;64718;52.124;6.226;2023-02-23T12:51:25;101568.91;;;7.65;100.00
76022;BME280;64718;52.124;6.226;2023-02-23T12:53:54;101571.50;;;7.65;100.00
76022;BME280;64718;52.124;6.226;2023-02-23T12:56:28;101569.66;;;7.70;100.00
76022;BME280;64718;52.124;6.226;2023-02-23T12:59:08;101572.22;;;7.71;100.00
76022;BME280;64718;52.124;6.226;2023-02-23T13:01:42;101573.00;;;7.76;100.00
76022;BME280;64718;52.124;6.226;2023-02-23T13:04:25;101576.25;;;7.86;100.00
76022;BME280;64718;52.124;6.226;2023-02-23T13:07:05;101581.44;;;7.86;100.00
76022;BME280;64718;52.124;6.226;2023-02-23T13:09:43;101580.53;;;7.88;100.00
76022;BME280;64718;52.124;6.226;2023-02-23T13:12:38;101582.16;;;7.92;100.00
76022;BME280;64718;52.124;6.226;2023-02-23T13:15:16;101581.13;;;8.01;100.00
76022;BME280;64718;52.124;6.226;2023-02-23T13:17:51;101576.00;;;7.98;100.00
76022;BME280;64718;52.124;6.226;2023-02-23T13:20:23;101567.19;;;8.07;100.00
76022;BME280;64718;52.124;6.226;2023-02-23T13:22:58;101570.53;;;8.13;100.00
76022;BME280;64718;52.124;6.226;2023-02-23T13:25:35;101574.09;;;8.08;100.00